> <
  • 1
  • 2

Novidades

  • Temos o prazer de lhe apresentar… Ler mais +
  • Está disponível a secção Multimédia no… Ler mais +
  • 1
[source: ADDS]
METAR
LPPR 201730Z 35013KT CAVOK 23/12 Q1013 =
TAF
TAF LPPR 201700Z 2018/2118 35010KT CAVOK BECMG 2018/2020 VRB03KT BECMG 2022/2024 09005KT BECMG 2106/2109 VRB03KT 9999 SCT045 TEMPO 2109/2118 8000 -RA BKN045 BECMG 2112/2115 35010KT =

contactos